sensor_id;sensor_type;location;lat;lon;timestamp;pressure;altitude;pressure_sealevel;temperature;humidity
74474;BME280;62922;-6.168;106.796;2023-01-20T00:01:14;100920.53;;;30.44;60.25
74474;BME280;62922;-6.168;106.796;2023-01-20T00:03:41;100983.28;;;30.84;60.19
74474;BME280;62922;-6.168;106.796;2023-01-20T00:06:09;100978.63;;;30.80;60.32
74474;BME280;62922;-6.168;106.796;2023-01-20T00:08:37;100996.41;;;30.89;60.21
74474;BME280;62922;-6.168;106.796;2023-01-20T00:11:08;100947.41;;;30.59;59.99
74474;BME280;62922;-6.168;106.796;2023-01-20T00:13:36;101003.34;;;30.83;60.13
74474;BME280;62922;-6.168;106.796;2023-01-20T00:16:04;101002.81;;;30.81;60.33
74474;BME280;62922;-6.168;106.796;2023-01-20T00:18:31;100976.75;;;30.58;59.87
74474;BME280;62922;-6.168;106.796;2023-01-20T00:21:11;100972.41;;;30.43;60.35
74474;BME280;62922;-6.168;106.796;2023-01-20T00:23:38;100951.16;;;30.29;60.63
74474;BME280;62922;-6.168;106.796;2023-01-20T00:26:12;101035.59;;;30.68;60.76
74474;BME280;62922;-6.168;106.796;2023-01-20T00:28:39;100979.34;;;30.46;60.36
74474;BME280;62922;-6.168;106.796;2023-01-20T00:31:16;101033.13;;;30.75;60.72
74474;BME280;62922;-6.168;106.796;2023-01-20T00:33:44;101011.53;;;30.62;60.44
74474;BME280;62922;-6.168;106.796;2023-01-20T00:36:14;101028.31;;;30.67;60.48
74474;BME280;62922;-6.168;106.796;2023-01-20T00:38:40;100955.97;;;30.37;60.91
74474;BME280;62922;-6.168;106.796;2023-01-20T00:41:07;100971.56;;;30.51;60.92
74474;BME280;62922;-6.168;106.796;2023-01-20T00:43:35;101004.50;;;30.82;60.18
74474;BME280;62922;-6.168;106.796;2023-01-20T00:46:02;101047.81;;;31.03;59.96
74474;BME280;62922;-6.168;106.796;2023-01-20T00:48:28;101029.56;;;30.92;59.82
74474;BME280;62922;-6.168;106.796;2023-01-20T00:50:58;100972.56;;;30.47;60.44
74474;BME280;62922;-6.168;106.796;2023-01-20T00:53:24;101004.44;;;30.64;60.59
74474;BME280;62922;-6.168;106.796;2023-01-20T00:55:51;101006.09;;;30.65;60.36
74474;BME280;62922;-6.168;106.796;2023-01-20T00:58:17;101059.91;;;30.95;60.67
74474;BME280;62922;-6.168;106.796;2023-01-20T01:00:47;101057.41;;;30.93;60.64
74474;BME280;62922;-6.168;106.796;2023-01-20T01:03:14;101050.13;;;30.92;60.49
74474;BME280;62922;-6.168;106.796;2023-01-20T01:05:41;101035.63;;;30.77;60.75
74474;BME280;62922;-6.168;106.796;2023-01-20T01:08:08;101054.75;;;30.88;60.12
74474;BME280;62922;-6.168;106.796;2023-01-20T01:10:34;101029.31;;;30.71;60.34
74474;BME280;62922;-6.168;106.796;2023-01-20T01:13:02;101061.88;;;30.86;60.32
74474;BME280;62922;-6.168;106.796;2023-01-20T01:15:28;101070.84;;;30.88;60.24
74474;BME280;62922;-6.168;106.796;2023-01-20T01:17:56;101065.06;;;30.93;60.31
74474;BME280;62922;-6.168;106.796;2023-01-20T01:20:39;101066.84;;;30.89;60.39
74474;BME280;62922;-6.168;106.796;2023-01-20T01:23:05;101036.13;;;30.79;60.31
74474;BME280;62922;-6.168;106.796;2023-01-20T01:25:31;101066.41;;;31.04;60.75
74474;BME280;62922;-6.168;106.796;2023-01-20T01:27:57;100978.22;;;30.55;60.39
74474;BME280;62922;-6.168;106.796;2023-01-20T01:30:24;101000.47;;;30.65;59.93
74474;BME280;62922;-6.168;106.796;2023-01-20T01:32:50;101073.53;;;31.10;60.65
74474;BME280;62922;-6.168;106.796;2023-01-20T01:35:16;101054.13;;;31.00;60.59
74474;BME280;62922;-6.168;106.796;2023-01-20T01:37:42;101014.41;;;30.79;61.24
74474;BME280;62922;-6.168;106.796;2023-01-20T01:40:09;101018.06;;;30.80;60.79
74474;BME280;62922;-6.168;106.796;2023-01-20T01:42:36;101077.88;;;31.16;60.38
74474;BME280;62922;-6.168;106.796;2023-01-20T01:45:17;101033.38;;;30.87;60.54
74474;BME280;62922;-6.168;106.796;2023-01-20T01:47:58;101082.03;;;31.18;60.84
74474;BME280;62922;-6.168;106.796;2023-01-20T01:52:55;101046.50;;;31.00;60.13
74474;BME280;62922;-6.168;106.796;2023-01-20T01:55:26;101059.25;;;31.06;59.44
74474;BME280;62922;-6.168;106.796;2023-01-20T01:57:55;101076.38;;;31.18;59.77
74474;BME280;62922;-6.168;106.796;2023-01-20T02:00:23;101072.06;;;31.21;59.52
74474;BME280;62922;-6.168;106.796;2023-01-20T02:02:50;101056.47;;;31.15;59.30
74474;BME280;62922;-6.168;106.796;2023-01-20T02:05:18;101023.41;;;30.90;59.12
74474;BME280;62922;-6.168;106.796;2023-01-20T02:07:46;101091.84;;;31.29;59.05
74474;BME280;62922;-6.168;106.796;2023-01-20T02:10:15;101068.44;;;31.29;58.79
74474;BME280;62922;-6.168;106.796;2023-01-20T02:12:44;101031.59;;;31.08;58.40
74474;BME280;62922;-6.168;106.796;2023-01-20T02:15:16;101082.06;;;31.35;58.05
74474;BME280;62922;-6.168;106.796;2023-01-20T02:17:52;101080.59;;;31.38;57.87
74474;BME280;62922;-6.168;106.796;2023-01-20T02:29:35;101072.50;;;31.53;56.94
74474;BME280;62922;-6.168;106.796;2023-01-20T02:34:53;101073.31;;;31.63;55.83
74474;BME280;62922;-6.168;106.796;2023-01-20T02:37:27;101066.81;;;31.71;55.95
74474;BME280;62922;-6.168;106.796;2023-01-20T02:40:28;101051.41;;;31.68;56.23
74474;BME280;62922;-6.168;106.796;2023-01-20T02:43:10;101058.69;;;31.78;56.53
74474;BME280;62922;-6.168;106.796;2023-01-20T02:46:00;101036.81;;;31.66;56.89
74474;BME280;62922;-6.168;106.796;2023-01-20T02:51:06;101035.31;;;31.60;56.58
74474;BME280;62922;-6.168;106.796;2023-01-20T02:53:49;101066.19;;;31.91;57.89
74474;BME280;62922;-6.168;106.796;2023-01-20T02:56:18;101066.81;;;31.88;57.25
74474;BME280;62922;-6.168;106.796;2023-01-20T02:58:49;101081.78;;;31.97;57.77
74474;BME280;62922;-6.168;106.796;2023-01-20T03:01:21;101067.34;;;31.98;58.25
74474;BME280;62922;-6.168;106.796;2023-01-20T03:03:54;101069.97;;;32.03;59.41
74474;BME280;62922;-6.168;106.796;2023-01-20T03:06:25;101069.16;;;31.94;58.19
74474;BME280;62922;-6.168;106.796;2023-01-20T03:08:54;101059.72;;;31.90;59.51
74474;BME280;62922;-6.168;106.796;2023-01-20T03:11:23;101016.03;;;31.71;59.30
74474;BME280;62922;-6.168;106.796;2023-01-20T03:13:57;100997.78;;;31.77;60.80
74474;BME280;62922;-6.168;106.796;2023-01-20T03:16:25;100998.59;;;31.69;61.24
74474;BME280;62922;-6.168;106.796;2023-01-20T03:18:53;101045.25;;;32.00;60.09
74474;BME280;62922;-6.168;106.796;2023-01-20T03:21:20;101038.41;;;32.01;60.34
74474;BME280;62922;-6.168;106.796;2023-01-20T03:23:54;101046.75;;;32.06;58.19
74474;BME280;62922;-6.168;106.796;2023-01-20T03:26:22;101001.25;;;31.82;58.96
74474;BME280;62922;-6.168;106.796;2023-01-20T03:28:49;101043.91;;;32.06;59.07
74474;BME280;62922;-6.168;106.796;2023-01-20T03:31:19;100990.97;;;31.86;57.29
74474;BME280;62922;-6.168;106.796;2023-01-20T03:33:47;101003.41;;;32.02;55.64
74474;BME280;62922;-6.168;106.796;2023-01-20T03:36:15;101023.78;;;32.16;54.55
74474;BME280;62922;-6.168;106.796;2023-01-20T03:38:43;101021.91;;;32.29;54.85
74474;BME280;62922;-6.168;106.796;2023-01-20T03:43:51;101019.56;;;32.31;55.29
74474;BME280;62922;-6.168;106.796;2023-01-20T03:46:31;100966.50;;;32.16;54.25
74474;BME280;62922;-6.168;106.796;2023-01-20T03:49:12;100966.97;;;32.18;53.90
74474;BME280;62922;-6.168;106.796;2023-01-20T03:52:01;100964.97;;;32.18;54.33
74474;BME280;62922;-6.168;106.796;2023-01-20T03:54:46;100970.78;;;32.22;54.06
74474;BME280;62922;-6.168;106.796;2023-01-20T03:57:18;100954.38;;;32.07;54.00
74474;BME280;62922;-6.168;106.796;2023-01-20T03:59:48;100988.34;;;32.27;54.94
74474;BME280;62922;-6.168;106.796;2023-01-20T04:02:16;100938.31;;;31.99;53.52
74474;BME280;62922;-6.168;106.796;2023-01-20T04:04:48;100912.28;;;31.85;55.79
74474;BME280;62922;-6.168;106.796;2023-01-20T04:07:21;101013.06;;;32.39;56.46
74474;BME280;62922;-6.168;106.796;2023-01-20T04:09:53;100964.69;;;32.11;57.36
74474;BME280;62922;-6.168;106.796;2023-01-20T04:12:21;100994.00;;;32.27;57.91
74474;BME280;62922;-6.168;106.796;2023-01-20T04:14:48;100967.84;;;32.10;56.99
74474;BME280;62922;-6.168;106.796;2023-01-20T04:17:14;100986.06;;;32.21;57.88
74474;BME280;62922;-6.168;106.796;2023-01-20T04:19:41;100917.28;;;31.79;56.82
74474;BME280;62922;-6.168;106.796;2023-01-20T04:22:16;100985.19;;;32.29;55.73
74474;BME280;62922;-6.168;106.796;2023-01-20T04:24:55;100980.09;;;32.22;56.52
74474;BME280;62922;-6.168;106.796;2023-01-20T04:27:23;100948.97;;;31.93;57.07
74474;BME280;62922;-6.168;106.796;2023-01-20T04:29:49;100990.78;;;32.08;57.69
74474;BME280;62922;-6.168;106.796;2023-01-20T04:32:15;100971.69;;;31.97;58.23
74474;BME280;62922;-6.168;106.796;2023-01-20T04:34:41;100981.81;;;31.98;58.26
74474;BME280;62922;-6.168;106.796;2023-01-20T04:37:08;100912.50;;;31.63;58.09
74474;BME280;62922;-6.168;106.796;2023-01-20T04:39:34;100937.84;;;31.80;57.85
74474;BME280;62922;-6.168;106.796;2023-01-20T04:42:00;100916.78;;;31.77;57.67
74474;BME280;62922;-6.168;106.796;2023-01-20T04:44:27;100913.63;;;31.79;57.67
74474;BME280;62922;-6.168;106.796;2023-01-20T04:46:56;100963.72;;;31.99;58.17
74474;BME280;62922;-6.168;106.796;2023-01-20T04:49:30;100861.88;;;31.57;58.06
74474;BME280;62922;-6.168;106.796;2023-01-20T04:51:58;100884.59;;;31.61;58.07
74474;BME280;62922;-6.168;106.796;2023-01-20T04:54:24;100859.06;;;31.57;57.93
74474;BME280;62922;-6.168;106.796;2023-01-20T04:56:50;100903.63;;;31.98;57.17
74474;BME280;62922;-6.168;106.796;2023-01-20T04:59:17;100889.00;;;31.96;56.90
74474;BME280;62922;-6.168;106.796;2023-01-20T05:01:43;100857.19;;;31.70;57.07
74474;BME280;62922;-6.168;106.796;2023-01-20T05:04:09;100822.41;;;31.57;57.45
74474;BME280;62922;-6.168;106.796;2023-01-20T05:06:36;100845.91;;;31.79;56.13
74474;BME280;62922;-6.168;106.796;2023-01-20T05:09:02;100850.53;;;31.92;56.18
74474;BME280;62922;-6.168;106.796;2023-01-20T05:11:29;100859.28;;;31.99;56.48
74474;BME280;62922;-6.168;106.796;2023-01-20T05:13:55;100854.75;;;32.06;55.60
74474;BME280;62922;-6.168;106.796;2023-01-20T05:16:21;100872.56;;;32.27;54.68
74474;BME280;62922;-6.168;106.796;2023-01-20T05:18:50;100836.78;;;32.11;54.41
74474;BME280;62922;-6.168;106.796;2023-01-20T05:21:16;100868.34;;;32.42;54.24
74474;BME280;62922;-6.168;106.796;2023-01-20T05:23:43;100873.13;;;32.50;53.69
74474;BME280;62922;-6.168;106.796;2023-01-20T05:26:09;100848.88;;;32.49;53.22
74474;BME280;62922;-6.168;106.796;2023-01-20T05:28:36;100878.19;;;32.65;52.76
74474;BME280;62922;-6.168;106.796;2023-01-20T05:31:02;100783.88;;;32.28;51.71
74474;BME280;62922;-6.168;106.796;2023-01-20T05:33:28;100864.47;;;32.76;51.64
74474;BME280;62922;-6.168;106.796;2023-01-20T05:35:55;100820.75;;;32.52;52.14
74474;BME280;62922;-6.168;106.796;2023-01-20T05:38:21;100844.94;;;32.62;52.83
74474;BME280;62922;-6.168;106.796;2023-01-20T05:40:47;100836.81;;;32.61;52.06
74474;BME280;62922;-6.168;106.796;2023-01-20T05:43:16;100807.31;;;32.49;52.90
74474;BME280;62922;-6.168;106.796;2023-01-20T05:45:42;100779.66;;;32.43;52.92
74474;BME280;62922;-6.168;106.796;2023-01-20T05:48:11;100799.06;;;32.65;54.11
74474;BME280;62922;-6.168;106.796;2023-01-20T05:50:37;100805.25;;;32.79;55.75
74474;BME280;62922;-6.168;106.796;2023-01-20T05:53:03;100824.94;;;32.96;55.67
74474;BME280;62922;-6.168;106.796;2023-01-20T05:55:30;100775.63;;;32.85;57.27
74474;BME280;62922;-6.168;106.796;2023-01-20T05:58:00;100774.28;;;33.03;55.50
74474;BME280;62922;-6.168;106.796;2023-01-20T06:00:27;100835.28;;;33.25;56.41
74474;BME280;62922;-6.168;106.796;2023-01-20T06:02:54;100732.13;;;32.78;56.52
74474;BME280;62922;-6.168;106.796;2023-01-20T06:05:23;100776.50;;;32.98;56.67
74474;BME280;62922;-6.168;106.796;2023-01-20T06:07:49;100767.53;;;32.96;56.00
74474;BME280;62922;-6.168;106.796;2023-01-20T06:10:16;100802.13;;;33.13;53.83
74474;BME280;62922;-6.168;106.796;2023-01-20T06:12:43;100778.09;;;33.07;54.06
74474;BME280;62922;-6.168;106.796;2023-01-20T06:15:09;100779.78;;;33.32;54.43
74474;BME280;62922;-6.168;106.796;2023-01-20T06:17:36;100776.50;;;33.42;55.83
74474;BME280;62922;-6.168;106.796;2023-01-20T06:20:02;100753.25;;;33.37;55.02
74474;BME280;62922;-6.168;106.796;2023-01-20T06:22:30;100761.34;;;33.59;53.55
74474;BME280;62922;-6.168;106.796;2023-01-20T06:24:56;100753.69;;;33.47;50.44
74474;BME280;62922;-6.168;106.796;2023-01-20T06:27:22;100754.88;;;33.59;49.66
74474;BME280;62922;-6.168;106.796;2023-01-20T06:29:49;100737.50;;;33.48;48.41
74474;BME280;62922;-6.168;106.796;2023-01-20T06:32:15;100722.31;;;33.53;47.86
74474;BME280;62922;-6.168;106.796;2023-01-20T06:34:41;100737.28;;;33.65;48.56
74474;BME280;62922;-6.168;106.796;2023-01-20T06:37:08;100758.38;;;33.92;48.38
74474;BME280;62922;-6.168;106.796;2023-01-20T06:39:34;100760.03;;;33.93;48.10
74474;BME280;62922;-6.168;106.796;2023-01-20T06:42:00;100754.03;;;33.82;48.63
74474;BME280;62922;-6.168;106.796;2023-01-20T06:44:27;100721.94;;;33.66;47.97
74474;BME280;62922;-6.168;106.796;2023-01-20T06:46:53;100696.00;;;33.52;47.20
74474;BME280;62922;-6.168;106.796;2023-01-20T06:49:19;100743.78;;;33.78;49.28
74474;BME280;62922;-6.168;106.796;2023-01-20T06:51:48;100702.13;;;33.42;49.62
74474;BME280;62922;-6.168;106.796;2023-01-20T06:54:15;100738.59;;;33.68;48.03
74474;BME280;62922;-6.168;106.796;2023-01-20T06:56:44;100707.94;;;33.58;47.67
74474;BME280;62922;-6.168;106.796;2023-01-20T06:59:11;100676.66;;;33.42;48.42
74474;BME280;62922;-6.168;106.796;2023-01-20T07:01:38;100709.00;;;33.65;48.66
74474;BME280;62922;-6.168;106.796;2023-01-20T07:04:05;100711.34;;;33.63;48.51
74474;BME280;62922;-6.168;106.796;2023-01-20T07:06:37;100710.41;;;33.71;48.02
74474;BME280;62922;-6.168;106.796;2023-01-20T07:09:06;100656.19;;;33.45;47.26
74474;BME280;62922;-6.168;106.796;2023-01-20T07:11:32;100674.22;;;33.53;48.24
74474;BME280;62922;-6.168;106.796;2023-01-20T07:14:01;100700.72;;;33.72;47.70
74474;BME280;62922;-6.168;106.796;2023-01-20T07:16:28;100698.72;;;33.73;48.50
74474;BME280;62922;-6.168;106.796;2023-01-20T07:18:55;100631.41;;;33.42;47.85
74474;BME280;62922;-6.168;106.796;2023-01-20T07:21:22;100617.38;;;33.33;48.38
74474;BME280;62922;-6.168;106.796;2023-01-20T07:23:49;100643.94;;;33.53;48.71
74474;BME280;62922;-6.168;106.796;2023-01-20T07:26:18;100659.25;;;33.64;48.40
74474;BME280;62922;-6.168;106.796;2023-01-20T07:28:46;100671.94;;;33.70;49.27
74474;BME280;62922;-6.168;106.796;2023-01-20T07:33:40;100620.78;;;33.39;48.96
74474;BME280;62922;-6.168;106.796;2023-01-20T07:36:07;100654.28;;;33.49;49.23
74474;BME280;62922;-6.168;106.796;2023-01-20T07:38:34;100674.22;;;33.53;50.05
74474;BME280;62922;-6.168;106.796;2023-01-20T07:41:03;100633.06;;;33.31;50.49
74474;BME280;62922;-6.168;106.796;2023-01-20T07:43:30;100627.88;;;33.33;49.61
74474;BME280;62922;-6.168;106.796;2023-01-20T07:45:59;100611.72;;;33.33;49.50
74474;BME280;62922;-6.168;106.796;2023-01-20T07:48:27;100606.41;;;33.32;48.94
74474;BME280;62922;-6.168;106.796;2023-01-20T07:50:55;100649.09;;;33.63;49.26
74474;BME280;62922;-6.168;106.796;2023-01-20T07:53:35;100642.38;;;33.68;49.54
74474;BME280;62922;-6.168;106.796;2023-01-20T07:56:06;100645.31;;;33.71;49.46
74474;BME280;62922;-6.168;106.796;2023-01-20T07:58:33;100557.75;;;33.26;49.62
74474;BME280;62922;-6.168;106.796;2023-01-20T08:01:14;100637.63;;;33.72;49.39
74474;BME280;62922;-6.168;106.796;2023-01-20T08:03:41;100620.06;;;33.66;50.70
74474;BME280;62922;-6.168;106.796;2023-01-20T08:06:10;100608.66;;;33.50;50.76
74474;BME280;62922;-6.168;106.796;2023-01-20T08:08:37;100617.16;;;33.50;51.23
74474;BME280;62922;-6.168;106.796;2023-01-20T08:11:05;100622.66;;;33.59;50.93
74474;BME280;62922;-6.168;106.796;2023-01-20T08:13:32;100576.13;;;33.32;50.22
74474;BME280;62922;-6.168;106.796;2023-01-20T08:16:00;100626.56;;;33.67;50.44
74474;BME280;62922;-6.168;106.796;2023-01-20T08:18:27;100611.13;;;33.64;50.35
74474;BME280;62922;-6.168;106.796;2023-01-20T08:20:53;100620.53;;;33.68;49.60
74474;BME280;62922;-6.168;106.796;2023-01-20T08:23:20;100606.38;;;33.68;50.05
74474;BME280;62922;-6.168;106.796;2023-01-20T08:25:55;100564.91;;;33.36;50.19
74474;BME280;62922;-6.168;106.796;2023-01-20T08:28:23;100558.53;;;33.39;50.39
74474;BME280;62922;-6.168;106.796;2023-01-20T08:30:49;100611.25;;;33.68;49.70
74474;BME280;62922;-6.168;106.796;2023-01-20T08:33:18;100600.97;;;33.63;49.86
74474;BME280;62922;-6.168;106.796;2023-01-20T08:35:45;100558.19;;;33.40;49.40
74474;BME280;62922;-6.168;106.796;2023-01-20T08:38:12;100593.56;;;33.59;49.71
74474;BME280;62922;-6.168;106.796;2023-01-20T08:40:41;100617.47;;;33.73;49.64
74474;BME280;62922;-6.168;106.796;2023-01-20T08:43:07;100590.38;;;33.48;50.07
74474;BME280;62922;-6.168;106.796;2023-01-20T08:45:34;100581.56;;;33.49;49.91
74474;BME280;62922;-6.168;106.796;2023-01-20T08:48:00;100624.31;;;33.72;50.04
74474;BME280;62922;-6.168;106.796;2023-01-20T08:50:26;100602.66;;;33.64;49.65
74474;BME280;62922;-6.168;106.796;2023-01-20T08:52:53;100589.22;;;33.49;50.20
74474;BME280;62922;-6.168;106.796;2023-01-20T08:55:19;100598.75;;;33.57;50.26
74474;BME280;62922;-6.168;106.796;2023-01-20T08:57:45;100585.88;;;33.35;50.19
74474;BME280;62922;-6.168;106.796;2023-01-20T09:00:12;100582.25;;;33.22;49.12
74474;BME280;62922;-6.168;106.796;2023-01-20T09:02:39;100663.00;;;33.56;49.44
74474;BME280;62922;-6.168;106.796;2023-01-20T09:05:05;100617.03;;;33.23;49.51
74474;BME280;62922;-6.168;106.796;2023-01-20T09:07:33;100645.91;;;33.28;50.45
74474;BME280;62922;-6.168;106.796;2023-01-20T09:09:59;100632.09;;;33.15;50.58
74474;BME280;62922;-6.168;106.796;2023-01-20T09:12:26;100663.94;;;33.24;51.17
74474;BME280;62922;-6.168;106.796;2023-01-20T09:14:52;100673.22;;;33.12;51.90
74474;BME280;62922;-6.168;106.796;2023-01-20T09:17:18;100694.09;;;33.20;53.29
74474;BME280;62922;-6.168;106.796;2023-01-20T09:19:44;100683.47;;;33.05;53.10
74474;BME280;62922;-6.168;106.796;2023-01-20T09:22:13;100692.06;;;33.08;53.35
74474;BME280;62922;-6.168;106.796;2023-01-20T09:24:39;100650.75;;;32.83;53.44
74474;BME280;62922;-6.168;106.796;2023-01-20T09:27:06;100618.72;;;32.67;53.82
74474;BME280;62922;-6.168;106.796;2023-01-20T09:29:35;100630.81;;;32.68;53.68
74474;BME280;62922;-6.168;106.796;2023-01-20T09:32:01;100663.59;;;32.81;53.38
74474;BME280;62922;-6.168;106.796;2023-01-20T09:34:29;100708.44;;;33.03;54.09
74474;BME280;62922;-6.168;106.796;2023-01-20T09:36:57;100519.72;;;31.98;53.72
74474;BME280;62922;-6.168;106.796;2023-01-20T09:39:44;100698.31;;;33.02;53.47
74474;BME280;62922;-6.168;106.796;2023-01-20T09:42:36;100701.81;;;32.99;54.29
74474;BME280;62922;-6.168;106.796;2023-01-20T09:45:28;100705.84;;;32.98;53.26
74474;BME280;62922;-6.168;106.796;2023-01-20T09:48:23;100708.19;;;32.96;53.86
74474;BME280;62922;-6.168;106.796;2023-01-20T09:51:21;100709.06;;;32.88;53.86
74474;BME280;62922;-6.168;106.796;2023-01-20T09:54:22;100697.41;;;32.89;53.52
74474;BME280;62922;-6.168;106.796;2023-01-20T09:56:52;100704.59;;;32.87;53.45
74474;BME280;62922;-6.168;106.796;2023-01-20T09:59:39;100700.59;;;32.88;53.57
74474;BME280;62922;-6.168;106.796;2023-01-20T10:02:16;100700.56;;;32.76;53.54
74474;BME280;62922;-6.168;106.796;2023-01-20T10:04:56;100707.16;;;32.80;53.27
74474;BME280;62922;-6.168;106.796;2023-01-20T10:10:20;100674.13;;;32.60;53.16
74474;BME280;62922;-6.168;106.796;2023-01-20T10:13:11;100710.00;;;32.80;52.96
74474;BME280;62922;-6.168;106.796;2023-01-20T10:15:46;100646.06;;;32.42;52.96
74474;BME280;62922;-6.168;106.796;2023-01-20T10:18:55;100695.88;;;32.80;52.98
74474;BME280;62922;-6.168;106.796;2023-01-20T10:24:01;100648.72;;;32.39;53.18
74474;BME280;62922;-6.168;106.796;2023-01-20T10:29:09;100719.25;;;32.68;52.77
74474;BME280;62922;-6.168;106.796;2023-01-20T10:31:43;100715.31;;;32.61;52.36
74474;BME280;62922;-6.168;106.796;2023-01-20T10:34:22;100726.09;;;32.67;52.73
74474;BME280;62922;-6.168;106.796;2023-01-20T10:36:55;100673.16;;;32.35;52.49
74474;BME280;62922;-6.168;106.796;2023-01-20T10:39:37;100742.56;;;32.65;53.43
74474;BME280;62922;-6.168;106.796;2023-01-20T10:42:13;100688.78;;;32.32;52.59
74474;BME280;62922;-6.168;106.796;2023-01-20T10:44:39;100682.22;;;32.28;53.13
74474;BME280;62922;-6.168;106.796;2023-01-20T10:58:36;100718.56;;;32.30;53.34
74474;BME280;62922;-6.168;106.796;2023-01-20T11:01:04;100752.00;;;32.48;53.23
74474;BME280;62922;-6.168;106.796;2023-01-20T11:03:38;100714.91;;;32.29;53.36
74474;BME280;62922;-6.168;106.796;2023-01-20T11:06:06;100757.09;;;32.55;53.12
74474;BME280;62922;-6.168;106.796;2023-01-20T11:08:32;100720.28;;;32.22;53.29
74474;BME280;62922;-6.168;106.796;2023-01-20T11:11:14;100764.81;;;32.46;53.16
74474;BME280;62922;-6.168;106.796;2023-01-20T11:13:41;100771.44;;;32.50;52.63
74474;BME280;62922;-6.168;106.796;2023-01-20T11:16:18;100735.03;;;32.28;53.04
74474;BME280;62922;-6.168;106.796;2023-01-20T11:21:27;100781.41;;;32.47;54.05
74474;BME280;62922;-6.168;106.796;2023-01-20T11:23:55;100779.78;;;32.46;53.25
74474;BME280;62922;-6.168;106.796;2023-01-20T11:26:27;100786.94;;;32.44;53.83
74474;BME280;62922;-6.168;106.796;2023-01-20T11:34:35;100783.94;;;32.40;53.13
74474;BME280;62922;-6.168;106.796;2023-01-20T11:39:34;100795.25;;;32.40;53.36
74474;BME280;62922;-6.168;106.796;2023-01-20T11:44:59;100808.53;;;32.40;53.22
74474;BME280;62922;-6.168;106.796;2023-01-20T11:47:29;100804.06;;;32.39;53.24
74474;BME280;62922;-6.168;106.796;2023-01-20T12:08:49;100839.31;;;32.33;53.86
74474;BME280;62922;-6.168;106.796;2023-01-20T12:11:21;100839.53;;;32.28;53.16
74474;BME280;62922;-6.168;106.796;2023-01-20T12:14:11;100837.78;;;32.15;53.58
74474;BME280;62922;-6.168;106.796;2023-01-20T12:20:03;100869.41;;;32.29;53.57
74474;BME280;62922;-6.168;106.796;2023-01-20T12:22:47;100858.66;;;32.22;53.59
74474;BME280;62922;-6.168;106.796;2023-01-20T12:25:28;100865.00;;;32.19;53.56
74474;BME280;62922;-6.168;106.796;2023-01-20T12:28:20;100863.31;;;32.18;53.43
74474;BME280;62922;-6.168;106.796;2023-01-20T12:30:54;100828.56;;;31.89;53.12
74474;BME280;62922;-6.168;106.796;2023-01-20T12:33:54;100823.44;;;31.91;53.42
74474;BME280;62922;-6.168;106.796;2023-01-20T12:42:17;100877.50;;;32.10;53.78
74474;BME280;62922;-6.168;106.796;2023-01-20T13:01:05;100907.56;;;32.06;53.65
74474;BME280;62922;-6.168;106.796;2023-01-20T13:09:23;100896.03;;;31.90;53.01
74474;BME280;62922;-6.168;106.796;2023-01-20T13:15:02;100933.97;;;32.01;53.79
74474;BME280;62922;-6.168;106.796;2023-01-20T13:17:57;100943.44;;;32.05;53.38
74474;BME280;62922;-6.168;106.796;2023-01-20T13:20:28;100850.34;;;31.42;53.69
74474;BME280;62922;-6.168;106.796;2023-01-20T13:22:57;100933.88;;;31.89;54.19
74474;BME280;62922;-6.168;106.796;2023-01-20T13:25:27;100845.19;;;31.35;53.47
74474;BME280;62922;-6.168;106.796;2023-01-20T13:27:55;100946.31;;;31.88;54.70
74474;BME280;62922;-6.168;106.796;2023-01-20T13:30:42;100949.75;;;32.02;54.68
74474;BME280;62922;-6.168;106.796;2023-01-20T13:36:16;100914.81;;;31.69;54.80
74474;BME280;62922;-6.168;106.796;2023-01-20T13:38:46;100950.78;;;31.89;54.28
74474;BME280;62922;-6.168;106.796;2023-01-20T13:44:38;100980.16;;;31.97;54.71
74474;BME280;62922;-6.168;106.796;2023-01-20T13:47:09;100980.34;;;31.92;55.17
74474;BME280;62922;-6.168;106.796;2023-01-20T13:49:53;100932.56;;;31.61;54.23
74474;BME280;62922;-6.168;106.796;2023-01-20T13:58:33;100988.47;;;31.93;54.28
74474;BME280;62922;-6.168;106.796;2023-01-20T14:01:03;100934.41;;;31.66;54.32
74474;BME280;62922;-6.168;106.796;2023-01-20T14:06:19;100990.97;;;31.86;54.10
74474;BME280;62922;-6.168;106.796;2023-01-20T14:08:52;100999.63;;;31.90;54.61
74474;BME280;62922;-6.168;106.796;2023-01-20T14:11:21;100938.56;;;31.51;54.77
74474;BME280;62922;-6.168;106.796;2023-01-20T14:14:16;100988.63;;;31.88;54.53
74474;BME280;62922;-6.168;106.796;2023-01-20T14:16:43;100953.47;;;31.69;54.72
74474;BME280;62922;-6.168;106.796;2023-01-20T14:19:23;101011.56;;;31.95;54.22
74474;BME280;62922;-6.168;106.796;2023-01-20T14:21:54;101016.03;;;31.96;54.53
74474;BME280;62922;-6.168;106.796;2023-01-20T14:27:07;101014.22;;;31.92;54.81
74474;BME280;62922;-6.168;106.796;2023-01-20T14:29:33;101022.00;;;31.95;54.22
74474;BME280;62922;-6.168;106.796;2023-01-20T14:32:00;101010.22;;;31.84;54.50
74474;BME280;62922;-6.168;106.796;2023-01-20T14:34:31;100997.66;;;31.65;54.76
74474;BME280;62922;-6.168;106.796;2023-01-20T14:37:01;101015.88;;;31.84;54.66
74474;BME280;62922;-6.168;106.796;2023-01-20T14:39:34;101021.34;;;31.89;54.54
74474;BME280;62922;-6.168;106.796;2023-01-20T14:42:00;100994.81;;;31.65;54.90
74474;BME280;62922;-6.168;106.796;2023-01-20T14:44:29;101031.50;;;31.90;54.39
74474;BME280;62922;-6.168;106.796;2023-01-20T14:47:00;101036.63;;;31.88;54.46
74474;BME280;62922;-6.168;106.796;2023-01-20T14:49:36;101034.94;;;31.87;54.51
74474;BME280;62922;-6.168;106.796;2023-01-20T14:52:06;100999.81;;;31.59;54.33
74474;BME280;62922;-6.168;106.796;2023-01-20T14:54:36;101045.72;;;31.85;54.88